sensor_id;sensor_type;location;lat;lon;timestamp;P1;durP1;ratioP1;P2;durP2;ratioP2
68475;SDS011;55464;48.266;14.188;2023-06-26T00:00:23;5.50;;;4.63;;
68475;SDS011;55464;48.266;14.188;2023-06-26T00:02:49;6.53;;;4.88;;
68475;SDS011;55464;48.266;14.188;2023-06-26T00:05:14;6.65;;;5.15;;
68475;SDS011;55464;48.266;14.188;2023-06-26T00:07:40;6.10;;;4.70;;
68475;SDS011;55464;48.266;14.188;2023-06-26T00:10:05;7.32;;;5.22;;
68475;SDS011;55464;48.266;14.188;2023-06-26T00:12:31;6.57;;;5.20;;
68475;SDS011;55464;48.266;14.188;2023-06-26T00:14:57;8.35;;;4.85;;
68475;SDS011;55464;48.266;14.188;2023-06-26T00:17:23;7.63;;;5.25;;
68475;SDS011;55464;48.266;14.188;2023-06-26T00:19:49;7.43;;;5.68;;
68475;SDS011;55464;48.266;14.188;2023-06-26T00:22:15;8.10;;;5.93;;
68475;SDS011;55464;48.266;14.188;2023-06-26T00:24:40;7.40;;;5.40;;
68475;SDS011;55464;48.266;14.188;2023-06-26T00:27:06;7.07;;;5.30;;
68475;SDS011;55464;48.266;14.188;2023-06-26T00:29:32;6.65;;;5.30;;
68475;SDS011;55464;48.266;14.188;2023-06-26T00:31:57;10.02;;;5.68;;
68475;SDS011;55464;48.266;14.188;2023-06-26T00:34:22;6.60;;;5.30;;
68475;SDS011;55464;48.266;14.188;2023-06-26T00:36:48;8.63;;;5.45;;
68475;SDS011;55464;48.266;14.188;2023-06-26T00:39:13;6.18;;;5.22;;
68475;SDS011;55464;48.266;14.188;2023-06-26T00:41:39;6.28;;;5.63;;
68475;SDS011;55464;48.266;14.188;2023-06-26T00:44:04;7.28;;;6.00;;
68475;SDS011;55464;48.266;14.188;2023-06-26T00:46:30;7.70;;;5.60;;
68475;SDS011;55464;48.266;14.188;2023-06-26T00:48:57;6.78;;;5.53;;
68475;SDS011;55464;48.266;14.188;2023-06-26T00:51:27;9.75;;;5.75;;
68475;SDS011;55464;48.266;14.188;2023-06-26T00:53:54;8.57;;;5.53;;
68475;SDS011;55464;48.266;14.188;2023-06-26T00:56:19;6.93;;;6.00;;
68475;SDS011;55464;48.266;14.188;2023-06-26T00:58:45;13.13;;;6.43;;
68475;SDS011;55464;48.266;14.188;2023-06-26T01:01:11;7.70;;;6.28;;
68475;SDS011;55464;48.266;14.188;2023-06-26T01:03:41;7.20;;;5.80;;
68475;SDS011;55464;48.266;14.188;2023-06-26T01:06:08;7.35;;;5.55;;
68475;SDS011;55464;48.266;14.188;2023-06-26T01:08:36;8.38;;;6.15;;
68475;SDS011;55464;48.266;14.188;2023-06-26T01:11:03;10.77;;;6.55;;
68475;SDS011;55464;48.266;14.188;2023-06-26T01:13:29;7.28;;;5.57;;
68475;SDS011;55464;48.266;14.188;2023-06-26T01:15:55;8.57;;;6.28;;
68475;SDS011;55464;48.266;14.188;2023-06-26T01:18:23;9.48;;;5.68;;
68475;SDS011;55464;48.266;14.188;2023-06-26T01:20:50;7.38;;;5.93;;
68475;SDS011;55464;48.266;14.188;2023-06-26T01:28:41;8.00;;;6.45;;
68475;SDS011;55464;48.266;14.188;2023-06-26T01:31:07;5.95;;;5.35;;
68475;SDS011;55464;48.266;14.188;2023-06-26T01:33:33;7.80;;;6.25;;
68475;SDS011;55464;48.266;14.188;2023-06-26T01:36:00;7.60;;;6.03;;
68475;SDS011;55464;48.266;14.188;2023-06-26T01:38:26;8.20;;;6.20;;
68475;SDS011;55464;48.266;14.188;2023-06-26T01:40:52;9.10;;;6.57;;
68475;SDS011;55464;48.266;14.188;2023-06-26T01:46:03;7.93;;;6.10;;
68475;SDS011;55464;48.266;14.188;2023-06-26T01:48:36;7.53;;;5.95;;
68475;SDS011;55464;48.266;14.188;2023-06-26T01:51:08;7.65;;;5.85;;
68475;SDS011;55464;48.266;14.188;2023-06-26T01:53:36;9.27;;;6.82;;
68475;SDS011;55464;48.266;14.188;2023-06-26T01:56:07;7.20;;;6.13;;
68475;SDS011;55464;48.266;14.188;2023-06-26T01:58:38;8.02;;;6.78;;
68475;SDS011;55464;48.266;14.188;2023-06-26T02:03:33;7.47;;;6.40;;
68475;SDS011;55464;48.266;14.188;2023-06-26T02:05:59;10.73;;;7.60;;
68475;SDS011;55464;48.266;14.188;2023-06-26T02:08:25;11.85;;;7.25;;
68475;SDS011;55464;48.266;14.188;2023-06-26T02:10:50;9.77;;;7.78;;
68475;SDS011;55464;48.266;14.188;2023-06-26T02:13:16;9.68;;;7.07;;
68475;SDS011;55464;48.266;14.188;2023-06-26T02:15:41;10.20;;;7.90;;
68475;SDS011;55464;48.266;14.188;2023-06-26T02:18:07;9.55;;;7.05;;
68475;SDS011;55464;48.266;14.188;2023-06-26T02:20:32;10.90;;;7.57;;
68475;SDS011;55464;48.266;14.188;2023-06-26T02:22:58;9.30;;;6.97;;
68475;SDS011;55464;48.266;14.188;2023-06-26T02:25:23;11.10;;;7.60;;
68475;SDS011;55464;48.266;14.188;2023-06-26T02:27:49;12.18;;;8.68;;
68475;SDS011;55464;48.266;14.188;2023-06-26T02:30:14;9.60;;;7.10;;
68475;SDS011;55464;48.266;14.188;2023-06-26T02:32:40;14.60;;;7.50;;
68475;SDS011;55464;48.266;14.188;2023-06-26T02:35:05;11.38;;;7.80;;
68475;SDS011;55464;48.266;14.188;2023-06-26T02:37:31;11.15;;;7.68;;
68475;SDS011;55464;48.266;14.188;2023-06-26T02:39:57;12.43;;;7.65;;
68475;SDS011;55464;48.266;14.188;2023-06-26T02:42:22;10.93;;;7.78;;
68475;SDS011;55464;48.266;14.188;2023-06-26T02:44:47;12.25;;;8.10;;
68475;SDS011;55464;48.266;14.188;2023-06-26T02:47:13;10.18;;;7.78;;
68475;SDS011;55464;48.266;14.188;2023-06-26T02:49:38;10.35;;;7.45;;
68475;SDS011;55464;48.266;14.188;2023-06-26T02:52:03;9.38;;;7.20;;
68475;SDS011;55464;48.266;14.188;2023-06-26T02:54:29;10.30;;;6.95;;
68475;SDS011;55464;48.266;14.188;2023-06-26T02:56:54;8.98;;;6.75;;
68475;SDS011;55464;48.266;14.188;2023-06-26T02:59:20;10.75;;;7.32;;
68475;SDS011;55464;48.266;14.188;2023-06-26T03:01:45;10.45;;;7.63;;
68475;SDS011;55464;48.266;14.188;2023-06-26T03:04:11;11.02;;;6.70;;
68475;SDS011;55464;48.266;14.188;2023-06-26T03:06:36;9.23;;;7.05;;
68475;SDS011;55464;48.266;14.188;2023-06-26T03:09:01;9.77;;;6.85;;
68475;SDS011;55464;48.266;14.188;2023-06-26T03:11:28;10.63;;;7.95;;
68475;SDS011;55464;48.266;14.188;2023-06-26T03:13:53;12.95;;;7.72;;
68475;SDS011;55464;48.266;14.188;2023-06-26T03:16:19;11.00;;;7.18;;
68475;SDS011;55464;48.266;14.188;2023-06-26T03:18:44;9.35;;;7.45;;
68475;SDS011;55464;48.266;14.188;2023-06-26T03:21:09;10.05;;;7.65;;
68475;SDS011;55464;48.266;14.188;2023-06-26T03:23:35;9.82;;;7.43;;
68475;SDS011;55464;48.266;14.188;2023-06-26T03:26:00;8.60;;;6.80;;
68475;SDS011;55464;48.266;14.188;2023-06-26T03:28:26;11.02;;;7.57;;
68475;SDS011;55464;48.266;14.188;2023-06-26T03:30:51;11.02;;;7.43;;
68475;SDS011;55464;48.266;14.188;2023-06-26T03:33:16;9.90;;;7.25;;
68475;SDS011;55464;48.266;14.188;2023-06-26T03:35:42;9.57;;;7.47;;
68475;SDS011;55464;48.266;14.188;2023-06-26T03:38:07;10.98;;;7.82;;
68475;SDS011;55464;48.266;14.188;2023-06-26T03:40:33;10.07;;;7.22;;
68475;SDS011;55464;48.266;14.188;2023-06-26T03:42:58;10.50;;;7.70;;
68475;SDS011;55464;48.266;14.188;2023-06-26T03:45:24;15.57;;;8.00;;
68475;SDS011;55464;48.266;14.188;2023-06-26T03:47:49;9.98;;;7.35;;
68475;SDS011;55464;48.266;14.188;2023-06-26T03:50:17;9.73;;;7.15;;
68475;SDS011;55464;48.266;14.188;2023-06-26T03:52:43;10.15;;;7.05;;
68475;SDS011;55464;48.266;14.188;2023-06-26T03:55:09;10.23;;;7.38;;
68475;SDS011;55464;48.266;14.188;2023-06-26T03:57:34;11.65;;;8.15;;
68475;SDS011;55464;48.266;14.188;2023-06-26T04:00:00;10.85;;;7.75;;
68475;SDS011;55464;48.266;14.188;2023-06-26T04:02:25;10.02;;;7.32;;
68475;SDS011;55464;48.266;14.188;2023-06-26T04:04:50;8.98;;;6.75;;
68475;SDS011;55464;48.266;14.188;2023-06-26T04:07:17;11.23;;;8.05;;
68475;SDS011;55464;48.266;14.188;2023-06-26T04:09:43;9.50;;;7.03;;
68475;SDS011;55464;48.266;14.188;2023-06-26T04:12:09;12.82;;;7.43;;
68475;SDS011;55464;48.266;14.188;2023-06-26T04:14:34;11.20;;;7.45;;
68475;SDS011;55464;48.266;14.188;2023-06-26T04:17:00;11.23;;;8.02;;
68475;SDS011;55464;48.266;14.188;2023-06-26T04:19:28;10.75;;;7.57;;
68475;SDS011;55464;48.266;14.188;2023-06-26T04:21:53;11.68;;;7.63;;
68475;SDS011;55464;48.266;14.188;2023-06-26T04:24:19;12.27;;;8.35;;
68475;SDS011;55464;48.266;14.188;2023-06-26T04:26:44;12.13;;;8.13;;
68475;SDS011;55464;48.266;14.188;2023-06-26T04:29:10;11.80;;;8.15;;
68475;SDS011;55464;48.266;14.188;2023-06-26T04:31:36;11.82;;;8.68;;
68475;SDS011;55464;48.266;14.188;2023-06-26T04:34:01;9.68;;;7.78;;
68475;SDS011;55464;48.266;14.188;2023-06-26T04:36:26;12.15;;;8.63;;
68475;SDS011;55464;48.266;14.188;2023-06-26T04:38:53;13.23;;;8.50;;
68475;SDS011;55464;48.266;14.188;2023-06-26T04:41:22;14.35;;;8.38;;
68475;SDS011;55464;48.266;14.188;2023-06-26T04:43:47;10.45;;;7.88;;
68475;SDS011;55464;48.266;14.188;2023-06-26T04:46:13;11.23;;;7.40;;
68475;SDS011;55464;48.266;14.188;2023-06-26T04:48:38;12.98;;;8.63;;
68475;SDS011;55464;48.266;14.188;2023-06-26T04:51:03;13.52;;;8.63;;
68475;SDS011;55464;48.266;14.188;2023-06-26T04:53:29;12.02;;;8.35;;
68475;SDS011;55464;48.266;14.188;2023-06-26T04:55:54;10.95;;;8.00;;
68475;SDS011;55464;48.266;14.188;2023-06-26T04:58:20;12.10;;;8.13;;
68475;SDS011;55464;48.266;14.188;2023-06-26T05:00:45;10.55;;;7.68;;
68475;SDS011;55464;48.266;14.188;2023-06-26T05:03:11;11.27;;;7.95;;
68475;SDS011;55464;48.266;14.188;2023-06-26T05:05:37;10.48;;;8.23;;
68475;SDS011;55464;48.266;14.188;2023-06-26T05:10:57;14.25;;;8.63;;
68475;SDS011;55464;48.266;14.188;2023-06-26T05:13:26;21.10;;;8.88;;
68475;SDS011;55464;48.266;14.188;2023-06-26T05:15:52;15.80;;;8.73;;
68475;SDS011;55464;48.266;14.188;2023-06-26T05:18:18;11.85;;;8.93;;
68475;SDS011;55464;48.266;14.188;2023-06-26T05:20:43;12.80;;;9.25;;
68475;SDS011;55464;48.266;14.188;2023-06-26T05:23:10;13.82;;;9.02;;
68475;SDS011;55464;48.266;14.188;2023-06-26T05:25:37;14.73;;;8.70;;
68475;SDS011;55464;48.266;14.188;2023-06-26T05:28:02;12.73;;;9.23;;
68475;SDS011;55464;48.266;14.188;2023-06-26T05:30:30;13.88;;;9.13;;
68475;SDS011;55464;48.266;14.188;2023-06-26T05:32:56;17.05;;;9.52;;
68475;SDS011;55464;48.266;14.188;2023-06-26T05:35:25;13.43;;;8.80;;
68475;SDS011;55464;48.266;14.188;2023-06-26T05:37:56;14.27;;;8.82;;
68475;SDS011;55464;48.266;14.188;2023-06-26T05:40:22;14.40;;;9.35;;
68475;SDS011;55464;48.266;14.188;2023-06-26T05:42:48;11.65;;;8.65;;
68475;SDS011;55464;48.266;14.188;2023-06-26T05:45:13;11.38;;;8.65;;
68475;SDS011;55464;48.266;14.188;2023-06-26T05:47:39;13.95;;;8.65;;
68475;SDS011;55464;48.266;14.188;2023-06-26T05:50:05;13.32;;;8.98;;
68475;SDS011;55464;48.266;14.188;2023-06-26T05:52:32;13.38;;;9.00;;
68475;SDS011;55464;48.266;14.188;2023-06-26T05:54:58;14.07;;;9.23;;
68475;SDS011;55464;48.266;14.188;2023-06-26T05:57:25;15.73;;;9.05;;
68475;SDS011;55464;48.266;14.188;2023-06-26T05:59:54;12.48;;;8.45;;
68475;SDS011;55464;48.266;14.188;2023-06-26T06:02:19;10.98;;;8.48;;
68475;SDS011;55464;48.266;14.188;2023-06-26T06:04:45;12.38;;;9.10;;
68475;SDS011;55464;48.266;14.188;2023-06-26T06:07:11;13.75;;;8.80;;
68475;SDS011;55464;48.266;14.188;2023-06-26T06:09:36;13.65;;;8.90;;
68475;SDS011;55464;48.266;14.188;2023-06-26T06:12:03;13.95;;;8.70;;
68475;SDS011;55464;48.266;14.188;2023-06-26T06:14:29;16.65;;;9.20;;
68475;SDS011;55464;48.266;14.188;2023-06-26T06:16:55;11.30;;;8.18;;
68475;SDS011;55464;48.266;14.188;2023-06-26T06:19:21;12.60;;;9.13;;
68475;SDS011;55464;48.266;14.188;2023-06-26T06:21:47;11.38;;;8.25;;
68475;SDS011;55464;48.266;14.188;2023-06-26T06:24:12;11.52;;;8.73;;
68475;SDS011;55464;48.266;14.188;2023-06-26T06:26:38;11.70;;;8.35;;
68475;SDS011;55464;48.266;14.188;2023-06-26T06:29:03;10.27;;;8.00;;
68475;SDS011;55464;48.266;14.188;2023-06-26T06:31:28;11.77;;;8.27;;
68475;SDS011;55464;48.266;14.188;2023-06-26T06:33:54;11.27;;;8.52;;
68475;SDS011;55464;48.266;14.188;2023-06-26T06:36:20;12.07;;;8.20;;
68475;SDS011;55464;48.266;14.188;2023-06-26T06:38:45;10.65;;;7.80;;
68475;SDS011;55464;48.266;14.188;2023-06-26T06:41:11;9.93;;;7.75;;
68475;SDS011;55464;48.266;14.188;2023-06-26T06:43:37;11.57;;;7.10;;
68475;SDS011;55464;48.266;14.188;2023-06-26T06:46:03;9.70;;;7.40;;
68475;SDS011;55464;48.266;14.188;2023-06-26T06:48:28;8.60;;;7.07;;
68475;SDS011;55464;48.266;14.188;2023-06-26T06:50:54;9.88;;;6.82;;
68475;SDS011;55464;48.266;14.188;2023-06-26T06:53:19;15.27;;;7.90;;
68475;SDS011;55464;48.266;14.188;2023-06-26T06:55:46;8.55;;;6.93;;
68475;SDS011;55464;48.266;14.188;2023-06-26T06:58:11;9.00;;;6.25;;
68475;SDS011;55464;48.266;14.188;2023-06-26T07:00:37;8.27;;;6.47;;
68475;SDS011;55464;48.266;14.188;2023-06-26T07:03:02;10.63;;;6.40;;
68475;SDS011;55464;48.266;14.188;2023-06-26T07:05:28;9.68;;;6.75;;
68475;SDS011;55464;48.266;14.188;2023-06-26T07:07:54;9.82;;;6.90;;
68475;SDS011;55464;48.266;14.188;2023-06-26T07:10:19;7.28;;;6.07;;
68475;SDS011;55464;48.266;14.188;2023-06-26T07:12:45;10.77;;;7.10;;
68475;SDS011;55464;48.266;14.188;2023-06-26T07:15:10;8.50;;;6.15;;
68475;SDS011;55464;48.266;14.188;2023-06-26T07:17:36;10.05;;;6.65;;
68475;SDS011;55464;48.266;14.188;2023-06-26T07:20:03;9.25;;;6.13;;
68475;SDS011;55464;48.266;14.188;2023-06-26T07:22:32;9.27;;;6.68;;
68475;SDS011;55464;48.266;14.188;2023-06-26T07:24:57;8.50;;;6.20;;
68475;SDS011;55464;48.266;14.188;2023-06-26T07:27:23;10.70;;;6.47;;
68475;SDS011;55464;48.266;14.188;2023-06-26T07:29:48;8.57;;;6.25;;
68475;SDS011;55464;48.266;14.188;2023-06-26T07:32:13;9.55;;;6.45;;
68475;SDS011;55464;48.266;14.188;2023-06-26T07:34:39;8.02;;;6.43;;
68475;SDS011;55464;48.266;14.188;2023-06-26T07:37:04;9.43;;;6.82;;
68475;SDS011;55464;48.266;14.188;2023-06-26T07:39:30;10.93;;;6.47;;
68475;SDS011;55464;48.266;14.188;2023-06-26T07:41:56;8.65;;;6.28;;
68475;SDS011;55464;48.266;14.188;2023-06-26T07:44:24;7.80;;;6.07;;
68475;SDS011;55464;48.266;14.188;2023-06-26T07:46:49;8.80;;;6.15;;
68475;SDS011;55464;48.266;14.188;2023-06-26T07:49:14;10.52;;;6.32;;
68475;SDS011;55464;48.266;14.188;2023-06-26T07:51:40;8.00;;;6.05;;
68475;SDS011;55464;48.266;14.188;2023-06-26T07:54:05;11.98;;;6.18;;
68475;SDS011;55464;48.266;14.188;2023-06-26T07:56:31;13.57;;;6.43;;
68475;SDS011;55464;48.266;14.188;2023-06-26T07:58:56;8.85;;;6.30;;
68475;SDS011;55464;48.266;14.188;2023-06-26T08:01:29;10.05;;;6.15;;
68475;SDS011;55464;48.266;14.188;2023-06-26T08:03:54;8.27;;;6.00;;
68475;SDS011;55464;48.266;14.188;2023-06-26T08:06:20;9.88;;;6.57;;
68475;SDS011;55464;48.266;14.188;2023-06-26T08:08:45;7.68;;;5.80;;
68475;SDS011;55464;48.266;14.188;2023-06-26T08:11:10;8.55;;;6.03;;
68475;SDS011;55464;48.266;14.188;2023-06-26T08:13:36;10.80;;;5.90;;
68475;SDS011;55464;48.266;14.188;2023-06-26T08:16:01;8.18;;;6.70;;
68475;SDS011;55464;48.266;14.188;2023-06-26T08:18:27;10.27;;;6.60;;
68475;SDS011;55464;48.266;14.188;2023-06-26T08:20:52;9.95;;;6.50;;
68475;SDS011;55464;48.266;14.188;2023-06-26T08:23:17;12.23;;;6.20;;
68475;SDS011;55464;48.266;14.188;2023-06-26T08:25:43;11.18;;;6.28;;
68475;SDS011;55464;48.266;14.188;2023-06-26T08:28:08;12.25;;;6.88;;
68475;SDS011;55464;48.266;14.188;2023-06-26T08:30:33;9.68;;;5.85;;
68475;SDS011;55464;48.266;14.188;2023-06-26T08:32:59;9.55;;;6.45;;
68475;SDS011;55464;48.266;14.188;2023-06-26T08:35:24;11.80;;;6.55;;
68475;SDS011;55464;48.266;14.188;2023-06-26T08:37:49;7.78;;;6.50;;
68475;SDS011;55464;48.266;14.188;2023-06-26T08:40:18;8.45;;;6.28;;
68475;SDS011;55464;48.266;14.188;2023-06-26T08:42:46;11.77;;;6.88;;
68475;SDS011;55464;48.266;14.188;2023-06-26T08:45:12;9.88;;;6.88;;
68475;SDS011;55464;48.266;14.188;2023-06-26T08:47:37;8.45;;;6.28;;
68475;SDS011;55464;48.266;14.188;2023-06-26T08:50:07;8.98;;;6.60;;
68475;SDS011;55464;48.266;14.188;2023-06-26T08:52:56;9.88;;;7.20;;
68475;SDS011;55464;48.266;14.188;2023-06-26T08:55:43;13.73;;;6.22;;
68475;SDS011;55464;48.266;14.188;2023-06-26T08:58:08;9.18;;;6.10;;
68475;SDS011;55464;48.266;14.188;2023-06-26T09:00:35;9.38;;;5.95;;
68475;SDS011;55464;48.266;14.188;2023-06-26T09:03:01;11.00;;;6.20;;
68475;SDS011;55464;48.266;14.188;2023-06-26T09:05:28;8.18;;;6.03;;
68475;SDS011;55464;48.266;14.188;2023-06-26T09:07:54;11.90;;;6.65;;
68475;SDS011;55464;48.266;14.188;2023-06-26T09:10:21;8.23;;;6.10;;
68475;SDS011;55464;48.266;14.188;2023-06-26T09:12:46;11.57;;;6.18;;
68475;SDS011;55464;48.266;14.188;2023-06-26T09:15:14;9.93;;;6.40;;
68475;SDS011;55464;48.266;14.188;2023-06-26T09:17:40;10.88;;;6.18;;
68475;SDS011;55464;48.266;14.188;2023-06-26T09:20:07;9.93;;;6.53;;
68475;SDS011;55464;48.266;14.188;2023-06-26T09:22:33;7.53;;;6.20;;
68475;SDS011;55464;48.266;14.188;2023-06-26T09:25:02;9.00;;;6.60;;
68475;SDS011;55464;48.266;14.188;2023-06-26T09:27:28;9.65;;;6.57;;
68475;SDS011;55464;48.266;14.188;2023-06-26T09:29:55;10.63;;;6.55;;
68475;SDS011;55464;48.266;14.188;2023-06-26T09:32:23;13.07;;;6.25;;
68475;SDS011;55464;48.266;14.188;2023-06-26T09:34:51;9.90;;;5.97;;
68475;SDS011;55464;48.266;14.188;2023-06-26T09:37:17;9.95;;;6.88;;
68475;SDS011;55464;48.266;14.188;2023-06-26T09:39:43;8.68;;;6.30;;
68475;SDS011;55464;48.266;14.188;2023-06-26T09:42:09;8.77;;;6.05;;
68475;SDS011;55464;48.266;14.188;2023-06-26T09:44:35;6.78;;;5.88;;
68475;SDS011;55464;48.266;14.188;2023-06-26T09:47:03;7.00;;;5.50;;
68475;SDS011;55464;48.266;14.188;2023-06-26T09:49:29;10.40;;;5.78;;
68475;SDS011;55464;48.266;14.188;2023-06-26T09:51:55;6.47;;;5.60;;
68475;SDS011;55464;48.266;14.188;2023-06-26T09:54:21;8.60;;;6.55;;
68475;SDS011;55464;48.266;14.188;2023-06-26T09:56:48;7.40;;;6.43;;
68475;SDS011;55464;48.266;14.188;2023-06-26T09:59:14;7.18;;;5.65;;
68475;SDS011;55464;48.266;14.188;2023-06-26T10:01:40;10.45;;;6.95;;
68475;SDS011;55464;48.266;14.188;2023-06-26T10:04:07;8.13;;;6.05;;
68475;SDS011;55464;48.266;14.188;2023-06-26T10:09:02;6.97;;;5.97;;
68475;SDS011;55464;48.266;14.188;2023-06-26T10:11:36;6.45;;;5.38;;
68475;SDS011;55464;48.266;14.188;2023-06-26T10:14:06;10.15;;;6.00;;
68475;SDS011;55464;48.266;14.188;2023-06-26T10:16:32;10.20;;;5.60;;
68475;SDS011;55464;48.266;14.188;2023-06-26T10:19:01;7.35;;;6.40;;
68475;SDS011;55464;48.266;14.188;2023-06-26T10:23:57;6.90;;;5.97;;
68475;SDS011;55464;48.266;14.188;2023-06-26T10:26:23;8.80;;;5.95;;
68475;SDS011;55464;48.266;14.188;2023-06-26T10:28:50;14.43;;;8.95;;
68475;SDS011;55464;48.266;14.188;2023-06-26T10:31:18;11.48;;;8.48;;
68475;SDS011;55464;48.266;14.188;2023-06-26T10:33:47;8.73;;;7.28;;
68475;SDS011;55464;48.266;14.188;2023-06-26T10:36:15;9.93;;;6.85;;
68475;SDS011;55464;48.266;14.188;2023-06-26T10:38:51;7.28;;;6.15;;
68475;SDS011;55464;48.266;14.188;2023-06-26T10:41:20;7.05;;;5.10;;
68475;SDS011;55464;48.266;14.188;2023-06-26T10:44:05;7.57;;;6.05;;
68475;SDS011;55464;48.266;14.188;2023-06-26T10:46:54;12.68;;;7.93;;
68475;SDS011;55464;48.266;14.188;2023-06-26T10:49:25;6.22;;;5.63;;
68475;SDS011;55464;48.266;14.188;2023-06-26T10:51:52;7.53;;;5.80;;
68475;SDS011;55464;48.266;14.188;2023-06-26T10:54:20;6.45;;;5.72;;
68475;SDS011;55464;48.266;14.188;2023-06-26T10:56:47;19.88;;;7.40;;
68475;SDS011;55464;48.266;14.188;2023-06-26T10:59:22;9.57;;;6.32;;
68475;SDS011;55464;48.266;14.188;2023-06-26T11:01:56;8.07;;;6.43;;
68475;SDS011;55464;48.266;14.188;2023-06-26T11:04:36;7.43;;;6.00;;
68475;SDS011;55464;48.266;14.188;2023-06-26T11:07:18;7.95;;;6.57;;
68475;SDS011;55464;48.266;14.188;2023-06-26T11:10:00;11.20;;;7.88;;
68475;SDS011;55464;48.266;14.188;2023-06-26T11:12:36;6.40;;;5.53;;
68475;SDS011;55464;48.266;14.188;2023-06-26T11:15:04;6.80;;;5.82;;
68475;SDS011;55464;48.266;14.188;2023-06-26T11:17:33;10.50;;;6.75;;
68475;SDS011;55464;48.266;14.188;2023-06-26T11:19:59;11.60;;;6.10;;
68475;SDS011;55464;48.266;14.188;2023-06-26T11:22:25;7.95;;;6.25;;
68475;SDS011;55464;48.266;14.188;2023-06-26T11:24:53;8.40;;;5.95;;
68475;SDS011;55464;48.266;14.188;2023-06-26T11:27:19;7.75;;;5.80;;
68475;SDS011;55464;48.266;14.188;2023-06-26T11:29:48;7.93;;;6.10;;
68475;SDS011;55464;48.266;14.188;2023-06-26T11:32:14;6.80;;;5.10;;
68475;SDS011;55464;48.266;14.188;2023-06-26T11:34:40;6.03;;;4.75;;
68475;SDS011;55464;48.266;14.188;2023-06-26T11:37:08;5.53;;;4.75;;
68475;SDS011;55464;48.266;14.188;2023-06-26T11:39:33;6.32;;;5.57;;
68475;SDS011;55464;48.266;14.188;2023-06-26T11:42:00;6.70;;;5.47;;
68475;SDS011;55464;48.266;14.188;2023-06-26T11:44:30;6.70;;;5.03;;
68475;SDS011;55464;48.266;14.188;2023-06-26T11:46:56;6.03;;;5.13;;
68475;SDS011;55464;48.266;14.188;2023-06-26T11:49:22;6.63;;;5.28;;
68475;SDS011;55464;48.266;14.188;2023-06-26T11:51:50;6.13;;;5.20;;
68475;SDS011;55464;48.266;14.188;2023-06-26T11:54:22;7.30;;;5.20;;
68475;SDS011;55464;48.266;14.188;2023-06-26T11:56:56;4.97;;;4.30;;
68475;SDS011;55464;48.266;14.188;2023-06-26T11:59:23;10.38;;;5.05;;
68475;SDS011;55464;48.266;14.188;2023-06-26T12:01:50;6.57;;;4.75;;
68475;SDS011;55464;48.266;14.188;2023-06-26T12:04:18;6.28;;;4.47;;
68475;SDS011;55464;48.266;14.188;2023-06-26T12:06:47;6.90;;;5.18;;
68475;SDS011;55464;48.266;14.188;2023-06-26T12:09:15;5.72;;;4.70;;
68475;SDS011;55464;48.266;14.188;2023-06-26T12:11:44;4.95;;;4.40;;
68475;SDS011;55464;48.266;14.188;2023-06-26T12:14:13;4.65;;;3.90;;
68475;SDS011;55464;48.266;14.188;2023-06-26T12:16:39;5.28;;;4.30;;
68475;SDS011;55464;48.266;14.188;2023-06-26T12:19:06;6.03;;;5.18;;
68475;SDS011;55464;48.266;14.188;2023-06-26T12:24:12;5.72;;;4.72;;
68475;SDS011;55464;48.266;14.188;2023-06-26T12:26:41;5.32;;;4.82;;
68475;SDS011;55464;48.266;14.188;2023-06-26T12:29:09;5.03;;;4.57;;
68475;SDS011;55464;48.266;14.188;2023-06-26T12:31:46;6.53;;;4.65;;
68475;SDS011;55464;48.266;14.188;2023-06-26T12:34:18;4.93;;;4.30;;
68475;SDS011;55464;48.266;14.188;2023-06-26T12:36:50;5.80;;;4.95;;
68475;SDS011;55464;48.266;14.188;2023-06-26T12:39:16;5.32;;;4.40;;
68475;SDS011;55464;48.266;14.188;2023-06-26T12:41:54;8.73;;;4.63;;
68475;SDS011;55464;48.266;14.188;2023-06-26T12:44:29;5.80;;;4.68;;
68475;SDS011;55464;48.266;14.188;2023-06-26T12:47:00;4.95;;;4.45;;
68475;SDS011;55464;48.266;14.188;2023-06-26T12:49:30;6.38;;;4.32;;
68475;SDS011;55464;48.266;14.188;2023-06-26T12:52:02;7.18;;;5.35;;
68475;SDS011;55464;48.266;14.188;2023-06-26T12:56:57;4.70;;;4.20;;
68475;SDS011;55464;48.266;14.188;2023-06-26T12:59:22;7.60;;;4.53;;
68475;SDS011;55464;48.266;14.188;2023-06-26T13:01:48;4.68;;;4.10;;
68475;SDS011;55464;48.266;14.188;2023-06-26T13:04:14;5.20;;;4.53;;
68475;SDS011;55464;48.266;14.188;2023-06-26T13:06:40;5.03;;;4.50;;
68475;SDS011;55464;48.266;14.188;2023-06-26T13:09:05;8.63;;;4.97;;
68475;SDS011;55464;48.266;14.188;2023-06-26T13:11:31;6.57;;;4.78;;
68475;SDS011;55464;48.266;14.188;2023-06-26T13:13:57;7.22;;;4.78;;
68475;SDS011;55464;48.266;14.188;2023-06-26T13:16:23;5.50;;;4.15;;
68475;SDS011;55464;48.266;14.188;2023-06-26T13:18:48;6.35;;;4.55;;
68475;SDS011;55464;48.266;14.188;2023-06-26T13:21:14;5.65;;;4.93;;
68475;SDS011;55464;48.266;14.188;2023-06-26T13:23:40;4.82;;;4.38;;
68475;SDS011;55464;48.266;14.188;2023-06-26T13:26:05;11.80;;;5.28;;
68475;SDS011;55464;48.266;14.188;2023-06-26T13:28:31;5.80;;;4.50;;
68475;SDS011;55464;48.266;14.188;2023-06-26T13:30:57;7.30;;;5.00;;
68475;SDS011;55464;48.266;14.188;2023-06-26T13:33:22;5.07;;;4.43;;
68475;SDS011;55464;48.266;14.188;2023-06-26T13:35:50;7.32;;;4.63;;
68475;SDS011;55464;48.266;14.188;2023-06-26T13:38:19;5.25;;;4.65;;
68475;SDS011;55464;48.266;14.188;2023-06-26T13:40:49;5.32;;;4.60;;
68475;SDS011;55464;48.266;14.188;2023-06-26T13:43:18;6.75;;;4.55;;
68475;SDS011;55464;48.266;14.188;2023-06-26T13:45:43;5.25;;;4.75;;
68475;SDS011;55464;48.266;14.188;2023-06-26T13:48:09;7.60;;;4.55;;
68475;SDS011;55464;48.266;14.188;2023-06-26T13:50:34;5.80;;;5.10;;
68475;SDS011;55464;48.266;14.188;2023-06-26T13:53:00;7.07;;;4.95;;
68475;SDS011;55464;48.266;14.188;2023-06-26T13:55:27;5.22;;;4.43;;
68475;SDS011;55464;48.266;14.188;2023-06-26T13:57:53;10.75;;;4.97;;
68475;SDS011;55464;48.266;14.188;2023-06-26T14:00:20;5.72;;;4.65;;
68475;SDS011;55464;48.266;14.188;2023-06-26T14:02:47;5.88;;;4.60;;
68475;SDS011;55464;48.266;14.188;2023-06-26T14:05:13;5.78;;;4.53;;
68475;SDS011;55464;48.266;14.188;2023-06-26T14:07:38;7.97;;;5.47;;
68475;SDS011;55464;48.266;14.188;2023-06-26T14:10:04;5.43;;;3.85;;
68475;SDS011;55464;48.266;14.188;2023-06-26T14:12:32;4.88;;;4.00;;
68475;SDS011;55464;48.266;14.188;2023-06-26T14:14:58;6.00;;;4.53;;
68475;SDS011;55464;48.266;14.188;2023-06-26T14:17:24;5.97;;;4.50;;
68475;SDS011;55464;48.266;14.188;2023-06-26T14:19:53;4.72;;;4.10;;
68475;SDS011;55464;48.266;14.188;2023-06-26T14:22:19;6.07;;;4.63;;
68475;SDS011;55464;48.266;14.188;2023-06-26T14:24:44;5.88;;;4.40;;
68475;SDS011;55464;48.266;14.188;2023-06-26T14:27:10;4.25;;;3.85;;
68475;SDS011;55464;48.266;14.188;2023-06-26T14:29:36;7.28;;;4.57;;
68475;SDS011;55464;48.266;14.188;2023-06-26T14:32:02;4.80;;;4.30;;
68475;SDS011;55464;48.266;14.188;2023-06-26T14:34:28;4.38;;;3.95;;
68475;SDS011;55464;48.266;14.188;2023-06-26T14:36:53;8.05;;;4.32;;
68475;SDS011;55464;48.266;14.188;2023-06-26T14:39:19;7.20;;;4.97;;
68475;SDS011;55464;48.266;14.188;2023-06-26T14:41:44;5.03;;;4.22;;
68475;SDS011;55464;48.266;14.188;2023-06-26T14:44:10;6.90;;;4.55;;
68475;SDS011;55464;48.266;14.188;2023-06-26T14:46:36;5.63;;;4.38;;
68475;SDS011;55464;48.266;14.188;2023-06-26T14:49:02;5.30;;;4.20;;